createdAt,value
2019-05-16T00:01:48.817Z,7.80
2019-05-16T00:04:19.142Z,7.70
2019-05-16T00:06:49.907Z,7.70
2019-05-16T00:09:20.684Z,7.70
2019-05-16T00:11:51.458Z,7.60
2019-05-16T00:14:22.250Z,7.70
2019-05-16T00:16:53.010Z,7.60
2019-05-16T00:19:23.818Z,7.60
2019-05-16T00:21:54.524Z,7.60
2019-05-16T00:24:25.309Z,7.60
2019-05-16T00:26:57.933Z,7.60
2019-05-16T00:29:28.443Z,7.50
2019-05-16T00:31:59.259Z,7.50
2019-05-16T00:34:29.975Z,7.50
2019-05-16T00:37:00.750Z,7.50
2019-05-16T00:39:31.467Z,7.50
2019-05-16T00:42:02.193Z,7.50
2019-05-16T00:44:32.961Z,7.50
2019-05-16T00:47:03.748Z,7.50
2019-05-16T00:49:34.492Z,7.40
2019-05-16T00:52:07.646Z,7.40
2019-05-16T00:54:38.389Z,7.30
2019-05-16T00:57:09.662Z,7.30
2019-05-16T00:59:40.578Z,7.30
2019-05-16T01:02:11.405Z,7.30
2019-05-16T01:04:42.189Z,7.20
2019-05-16T01:07:13.288Z,7.20
2019-05-16T01:09:44.038Z,7.20
2019-05-16T01:12:14.828Z,7.20
2019-05-16T01:14:47.672Z,7.20
2019-05-16T01:17:18.323Z,7.10
2019-05-16T01:19:49.077Z,7.10
2019-05-16T01:22:19.823Z,7.10
2019-05-16T01:24:50.627Z,7.10
2019-05-16T01:27:21.406Z,7.10
2019-05-16T01:29:52.173Z,7.20
2019-05-16T01:32:23.119Z,7.20
2019-05-16T01:34:53.864Z,7.10
2019-05-16T01:37:24.677Z,7.10
2019-05-16T01:39:55.419Z,7.10
2019-05-16T01:42:27.852Z,7.10
2019-05-16T01:44:58.769Z,7.10
2019-05-16T01:47:29.615Z,7.10
2019-05-16T01:50:00.391Z,7.00
2019-05-16T01:52:31.199Z,7.00
2019-05-16T01:55:01.936Z,6.90
2019-05-16T01:57:32.690Z,6.90
2019-05-16T02:00:03.447Z,6.90
2019-05-16T02:02:34.243Z,6.90
2019-05-16T02:05:05.170Z,6.90
2019-05-16T02:07:35.936Z,6.90
2019-05-16T02:10:08.567Z,6.90
2019-05-16T02:12:39.501Z,6.80
2019-05-16T02:15:10.326Z,6.80
2019-05-16T02:17:41.141Z,6.70
2019-05-16T02:20:12.317Z,6.70
2019-05-16T02:22:43.063Z,6.70
2019-05-16T02:25:13.949Z,6.70
2019-05-16T02:27:44.730Z,6.70
2019-05-16T02:30:15.714Z,6.70
2019-05-16T02:32:46.467Z,6.70
2019-05-16T02:35:20.689Z,6.70
2019-05-16T02:37:51.674Z,6.70
2019-05-16T02:40:23.419Z,6.70
2019-05-16T02:42:56.149Z,6.60
2019-05-16T02:45:26.597Z,6.60
2019-05-16T02:47:57.367Z,6.60
2019-05-16T02:50:31.266Z,6.70
2019-05-16T02:53:01.504Z,6.60
2019-05-16T02:55:32.516Z,6.60
2019-05-16T02:58:03.291Z,6.60
2019-05-16T03:00:36.233Z,6.60
2019-05-16T03:03:07.378Z,6.60
2019-05-16T03:05:41.614Z,6.70
2019-05-16T03:08:12.222Z,6.70
2019-05-16T03:10:43.295Z,6.70
2019-05-16T03:13:15.505Z,6.70
2019-05-16T03:15:50.967Z,6.70
2019-05-16T03:18:24.175Z,6.70
2019-05-16T03:20:55.652Z,6.70
2019-05-16T03:23:26.414Z,6.60
2019-05-16T03:25:57.185Z,6.60
2019-05-16T03:28:30.621Z,6.70
2019-05-16T03:31:05.060Z,6.60
2019-05-16T03:33:41.493Z,6.60
2019-05-16T03:36:05.466Z,6.60
2019-05-16T03:38:36.457Z,6.60
2019-05-16T03:41:07.197Z,6.60
2019-05-16T03:43:41.014Z,6.60
2019-05-16T03:46:11.925Z,6.60
2019-05-16T03:48:42.973Z,6.60
2019-05-16T03:51:13.770Z,6.50
2019-05-16T03:53:44.554Z,6.50
2019-05-16T03:56:15.310Z,6.60
2019-05-16T03:58:46.046Z,6.60
2019-05-16T04:01:16.872Z,6.60
2019-05-16T04:03:50.806Z,6.70
2019-05-16T04:06:22.071Z,6.70
2019-05-16T04:08:52.456Z,6.70
2019-05-16T04:11:23.767Z,6.80
2019-05-16T04:13:54.734Z,6.80
2019-05-16T04:16:25.509Z,6.80
2019-05-16T04:18:56.253Z,6.80
2019-05-16T04:21:27.056Z,6.80
2019-05-16T04:24:00.999Z,6.80
2019-05-16T04:26:30.828Z,6.80
2019-05-16T04:29:02.622Z,6.90
2019-05-16T04:31:33.348Z,6.90
2019-05-16T04:34:04.100Z,6.90
2019-05-16T04:36:34.909Z,6.90
2019-05-16T04:39:07.565Z,6.90
2019-05-16T04:41:40.931Z,6.90
2019-05-16T04:44:11.713Z,6.90
2019-05-16T04:46:42.785Z,7.00
2019-05-16T04:49:13.552Z,7.00
2019-05-16T04:51:44.318Z,6.90
2019-05-16T04:54:15.039Z,6.90
2019-05-16T04:56:45.877Z,7.00
2019-05-16T04:59:17.094Z,7.00
2019-05-16T05:01:51.167Z,7.00
2019-05-16T05:04:21.510Z,7.00
2019-05-16T05:06:55.657Z,7.10
2019-05-16T05:09:24.893Z,7.20
2019-05-16T05:11:55.649Z,7.20
2019-05-16T05:14:26.385Z,7.30
2019-05-16T05:16:57.212Z,7.30
2019-05-16T05:19:30.495Z,7.30
2019-05-16T05:22:01.297Z,7.30
2019-05-16T05:24:32.281Z,7.40
2019-05-16T05:27:03.067Z,7.50
2019-05-16T05:29:33.813Z,7.50
2019-05-16T05:32:05.402Z,7.60
2019-05-16T05:34:36.286Z,7.70
2019-05-16T05:37:07.052Z,7.70
2019-05-16T05:39:39.592Z,7.70
2019-05-16T05:42:10.617Z,7.80
2019-05-16T05:44:41.412Z,7.90
2019-05-16T05:47:12.176Z,8.00
2019-05-16T05:49:42.962Z,8.00
2019-05-16T05:52:13.785Z,8.10
2019-05-16T05:54:44.526Z,8.20
2019-05-16T05:57:15.283Z,8.30
2019-05-16T05:59:46.028Z,8.30
2019-05-16T06:02:16.849Z,8.30
2019-05-16T06:04:47.590Z,8.40
2019-05-16T06:07:20.436Z,8.50
2019-05-16T06:09:56.293Z,8.60
2019-05-16T06:12:23.180Z,8.60
2019-05-16T06:14:53.895Z,8.60
2019-05-16T06:17:24.671Z,8.60
2019-05-16T06:19:55.457Z,8.50
2019-05-16T06:22:26.553Z,8.40
2019-05-16T06:24:57.310Z,8.30
2019-05-16T06:27:30.284Z,8.30
2019-05-16T06:30:00.772Z,8.30
2019-05-16T06:32:31.550Z,8.30
2019-05-16T06:35:02.276Z,8.30
2019-05-16T06:37:33.052Z,8.40
2019-05-16T06:40:03.827Z,8.60
2019-05-16T06:42:34.603Z,8.70
2019-05-16T06:45:05.659Z,8.80
2019-05-16T06:47:36.456Z,8.80
2019-05-16T06:50:07.404Z,8.70
2019-05-16T06:52:40.640Z,8.70
2019-05-16T06:55:10.705Z,8.80
2019-05-16T06:57:41.484Z,8.90
2019-05-16T07:00:12.458Z,9.00
2019-05-16T07:02:43.244Z,9.10
2019-05-16T07:05:14.410Z,9.20
2019-05-16T07:07:45.183Z,9.40
2019-05-16T07:10:15.972Z,9.50
2019-05-16T07:12:46.748Z,9.60
2019-05-16T07:15:17.736Z,9.50
2019-05-16T07:17:50.571Z,9.60
2019-05-16T07:20:21.263Z,9.60
2019-05-16T07:22:52.074Z,9.60
2019-05-16T07:25:22.849Z,9.50
2019-05-16T07:27:53.615Z,9.50
2019-05-16T07:30:24.774Z,9.50
2019-05-16T07:32:56.841Z,9.50
2019-05-16T07:35:27.645Z,9.40
2019-05-16T07:38:00.469Z,9.30
2019-05-16T07:40:30.914Z,9.20
2019-05-16T07:43:01.656Z,9.40
2019-05-16T07:45:32.441Z,9.40
2019-05-16T07:48:03.208Z,9.30
2019-05-16T07:50:34.023Z,9.30
2019-05-16T07:53:04.741Z,9.40
2019-05-16T07:55:35.487Z,9.50
2019-05-16T07:58:06.261Z,9.60
2019-05-16T08:00:49.633Z,9.70
2019-05-16T08:03:10.524Z,9.80
2019-05-16T08:05:41.484Z,10.00
2019-05-16T08:08:12.219Z,10.20
2019-05-16T08:10:46.590Z,10.50
2019-05-16T08:13:17.602Z,10.60
2019-05-16T08:15:50.374Z,10.70
2019-05-16T08:18:21.386Z,10.60
2019-05-16T08:20:52.897Z,10.40
2019-05-16T08:23:23.728Z,10.30
2019-05-16T08:25:54.611Z,10.30
2019-05-16T08:28:25.369Z,10.40
2019-05-16T08:30:56.169Z,10.60
2019-05-16T08:33:26.945Z,10.70
2019-05-16T08:36:01.245Z,10.70
2019-05-16T08:38:30.938Z,11.00
2019-05-16T08:43:34.251Z,11.60
2019-05-16T08:46:05.153Z,11.80
2019-05-16T08:48:35.920Z,11.70
2019-05-16T08:51:06.707Z,11.60
2019-05-16T08:53:37.453Z,11.50
2019-05-16T08:56:12.328Z,11.50
2019-05-16T08:58:41.160Z,11.50
2019-05-16T09:03:44.582Z,11.20
2019-05-16T09:06:15.355Z,11.30
2019-05-16T09:08:46.111Z,11.40
2019-05-16T09:10:11.185Z,11.30
2019-05-16T09:10:34.643Z,11.40
2019-05-16T09:13:49.635Z,11.80
2019-05-16T09:16:20.490Z,11.90
2019-05-16T09:18:38.418Z,11.60
2019-05-16T09:18:51.432Z,11.90
2019-05-16T09:21:22.283Z,11.90
2019-05-16T09:23:53.084Z,11.90
2019-05-16T09:26:23.859Z,11.90
2019-05-16T09:28:57.043Z,12.00
2019-05-16T09:31:27.635Z,12.20
2019-05-16T09:33:58.544Z,12.20
2019-05-16T09:36:29.291Z,12.00
2019-05-16T09:39:00.049Z,12.00
2019-05-16T09:41:46.094Z,12.20
2019-05-16T09:44:03.200Z,12.40
2019-05-16T09:46:33.877Z,12.80
2019-05-16T09:49:23.619Z,13.10
2019-05-16T09:51:37.739Z,13.10
2019-05-16T09:54:08.405Z,13.10
2019-05-16T09:56:39.163Z,13.00
2019-05-16T09:59:09.939Z,12.90
2019-05-16T10:01:40.707Z,12.80
2019-05-16T10:04:11.443Z,12.90
2019-05-16T10:06:42.238Z,13.10
2019-05-16T10:09:12.996Z,13.10
2019-05-16T10:11:43.840Z,13.30
2019-05-16T10:14:17.230Z,13.50
2019-05-16T10:16:47.892Z,13.80
2019-05-16T10:19:18.756Z,14.10
2019-05-16T10:21:49.596Z,14.10
2019-05-16T10:24:20.343Z,14.20
2019-05-16T10:26:53.948Z,14.30
2019-05-16T10:29:23.513Z,14.20
2019-05-16T10:31:56.688Z,13.90
2019-05-16T10:34:26.799Z,13.70
2019-05-16T10:36:59.866Z,13.80
2019-05-16T10:39:30.642Z,13.80
2019-05-16T10:42:01.418Z,14.00
2019-05-16T10:44:32.134Z,14.20
2019-05-16T10:47:02.881Z,14.30
2019-05-16T10:49:37.944Z,14.50
2019-05-16T10:52:07.229Z,14.50
2019-05-16T10:54:53.833Z,14.60
2019-05-16T10:57:10.606Z,14.50
2019-05-16T11:00:06.525Z,14.40
2019-05-16T11:02:13.791Z,14.40
2019-05-16T11:04:59.338Z,14.50
2019-05-16T11:07:16.916Z,14.40
2019-05-16T11:09:55.756Z,14.10
2019-05-16T11:12:20.655Z,13.90
2019-05-16T11:14:51.573Z,13.80
2019-05-16T11:17:22.468Z,13.90
2019-05-16T11:19:53.259Z,14.00
2019-05-16T11:22:24.040Z,14.20
2019-05-16T11:24:56.537Z,14.40
2019-05-16T11:27:27.243Z,14.60
2019-05-16T11:29:58.000Z,14.70
2019-05-16T11:32:28.756Z,14.70
2019-05-16T11:34:59.541Z,14.70
2019-05-16T11:37:30.268Z,14.80
2019-05-16T11:40:01.034Z,14.70
2019-05-16T11:42:31.771Z,14.60
2019-05-16T11:45:02.534Z,14.60
2019-05-16T11:47:33.293Z,14.70
2019-05-16T11:50:07.186Z,14.60
2019-05-16T11:52:40.435Z,14.50
2019-05-16T11:55:09.563Z,14.40
2019-05-16T11:57:40.319Z,14.50
2019-05-16T12:00:13.617Z,14.60
2019-05-16T12:02:44.362Z,14.80
2019-05-16T12:05:17.229Z,15.00
2019-05-16T12:07:48.620Z,15.20
2019-05-16T12:10:19.862Z,15.30
2019-05-16T12:12:50.693Z,15.50
2019-05-16T12:15:23.152Z,15.60
2019-05-16T12:18:01.978Z,15.80
2019-05-16T12:20:27.359Z,16.00
2019-05-16T12:22:58.265Z,16.40
2019-05-16T12:25:36.858Z,17.20
2019-05-16T12:28:08.304Z,17.60
2019-05-16T12:30:40.457Z,17.30
2019-05-16T12:33:11.403Z,16.90
2019-05-16T12:35:42.218Z,16.50
2019-05-16T12:38:12.934Z,16.70
2019-05-16T12:40:43.732Z,17.10
2019-05-16T12:43:14.438Z,17.00
2019-05-16T12:45:47.259Z,16.80
2019-05-16T12:48:20.396Z,16.20
2019-05-16T12:50:50.209Z,16.00
2019-05-16T12:53:23.576Z,16.10
2019-05-16T12:55:53.430Z,16.10
2019-05-16T12:58:26.015Z,16.30
2019-05-16T13:00:57.753Z,16.30
2019-05-16T13:03:29.028Z,16.20
2019-05-16T13:05:59.827Z,16.20
2019-05-16T13:08:30.542Z,16.10
2019-05-16T13:11:01.351Z,16.10
2019-05-16T13:13:32.116Z,15.90
2019-05-16T13:16:02.896Z,15.80
2019-05-16T13:18:33.712Z,15.50
2019-05-16T13:21:06.644Z,15.60
2019-05-16T13:23:36.830Z,15.90
2019-05-16T13:26:07.727Z,16.50
2019-05-16T13:28:38.442Z,17.10
2019-05-16T13:31:10.057Z,17.70
2019-05-16T13:33:42.476Z,17.80
2019-05-16T13:36:13.256Z,18.10
2019-05-16T13:38:43.979Z,18.60
2019-05-16T13:41:18.003Z,19.20
2019-05-16T13:43:47.202Z,19.70
2019-05-16T13:46:17.978Z,19.60
2019-05-16T13:48:48.763Z,19.30
2019-05-16T13:51:19.479Z,18.90
2019-05-16T13:53:50.117Z,18.30
2019-05-16T13:56:20.857Z,18.70
2019-05-16T13:58:52.419Z,18.60
2019-05-16T14:01:23.269Z,18.30
2019-05-16T14:03:53.982Z,18.00
2019-05-16T14:06:24.759Z,17.70
2019-05-16T14:08:56.780Z,17.40
2019-05-16T14:11:27.570Z,17.20
2019-05-16T14:13:58.260Z,16.90
2019-05-16T14:16:29.108Z,16.70
2019-05-16T14:18:59.841Z,16.50
2019-05-16T14:21:30.638Z,16.20
2019-05-16T14:24:01.391Z,16.00
2019-05-16T14:26:32.183Z,15.80
2019-05-16T14:29:03.135Z,15.80
2019-05-16T14:31:34.230Z,15.70
2019-05-16T14:34:06.281Z,15.60
2019-05-16T14:36:37.814Z,15.50
2019-05-16T14:39:08.683Z,15.40
2019-05-16T14:41:39.460Z,15.30
2019-05-16T14:44:10.252Z,15.20
2019-05-16T14:46:41.010Z,15.00
2019-05-16T14:49:11.815Z,14.60
2019-05-16T14:51:42.532Z,14.60
2019-05-16T14:54:13.517Z,14.60
2019-05-16T14:56:47.357Z,14.50
2019-05-16T14:59:16.686Z,14.40
2019-05-16T15:01:47.522Z,14.40
2019-05-16T15:04:18.383Z,14.40
2019-05-16T15:06:49.140Z,14.30
2019-05-16T15:09:19.952Z,14.30
2019-05-16T15:11:50.691Z,14.40
2019-05-16T15:14:21.488Z,14.50
2019-05-16T15:16:52.246Z,14.50
2019-05-16T15:19:23.023Z,14.60
2019-05-16T15:21:56.753Z,14.60
2019-05-16T15:24:26.817Z,14.60
2019-05-16T15:27:01.253Z,14.80
2019-05-16T15:29:30.157Z,14.70
2019-05-16T15:32:00.958Z,14.40
2019-05-16T15:34:34.566Z,14.30
2019-05-16T15:37:04.107Z,14.30
2019-05-16T15:39:37.393Z,14.30
2019-05-16T15:42:08.271Z,14.20
2019-05-16T15:44:39.224Z,14.00
2019-05-16T15:47:09.983Z,13.70
2019-05-16T15:49:40.798Z,13.60
2019-05-16T15:52:12.214Z,13.50
2019-05-16T15:54:44.895Z,13.30
2019-05-16T15:57:17.597Z,13.10
2019-05-16T15:59:48.054Z,12.80
2019-05-16T16:02:19.522Z,12.50
2019-05-16T16:04:50.276Z,12.30
2019-05-16T16:07:21.052Z,12.20
2019-05-16T16:09:51.819Z,12.10
2019-05-16T16:12:22.526Z,11.90
2019-05-16T16:14:53.332Z,11.60
2019-05-16T16:17:29.140Z,11.60
2019-05-16T16:19:58.166Z,11.50
2019-05-16T16:22:28.951Z,11.40
2019-05-16T16:24:59.778Z,11.20
2019-05-16T16:27:30.524Z,11.10
2019-05-16T16:30:01.463Z,11.10
2019-05-16T16:32:32.276Z,10.90
2019-05-16T16:35:03.034Z,10.80
2019-05-16T16:37:33.808Z,10.70
2019-05-16T16:40:10.038Z,10.60
2019-05-16T16:42:37.778Z,10.60
2019-05-16T16:45:09.023Z,10.70
2019-05-16T16:47:39.775Z,10.70
2019-05-16T16:50:11.090Z,10.60
2019-05-16T16:52:41.927Z,10.60
2019-05-16T16:55:12.794Z,10.60
2019-05-16T16:57:43.563Z,10.50
2019-05-16T17:00:17.565Z,10.40
2019-05-16T17:03:02.139Z,10.30
2019-05-16T17:05:21.100Z,10.30
2019-05-16T17:07:51.845Z,10.30
2019-05-16T17:10:22.663Z,10.30
2019-05-16T17:12:53.400Z,10.30
2019-05-16T17:15:24.393Z,10.20
2019-05-16T17:17:57.237Z,10.10
2019-05-16T17:20:27.597Z,10.10
2019-05-16T17:22:58.395Z,10.00
2019-05-16T17:25:29.141Z,9.90
2019-05-16T17:27:59.977Z,9.80
2019-05-16T17:30:30.713Z,9.70
2019-05-16T17:33:01.819Z,9.60
2019-05-16T17:35:32.554Z,9.50
2019-05-16T17:38:03.333Z,9.40
2019-05-16T17:40:34.079Z,9.40
2019-05-16T17:43:07.073Z,9.30
2019-05-16T17:45:37.770Z,9.30
2019-05-16T17:48:08.716Z,9.20
2019-05-16T17:50:39.604Z,9.20
2019-05-16T17:53:10.391Z,9.30
2019-05-16T17:56:00.240Z,9.30
2019-05-16T17:58:30.999Z,9.30
2019-05-16T18:01:01.775Z,9.30
2019-05-16T18:03:32.500Z,9.30
2019-05-16T18:06:03.256Z,9.20
2019-05-16T18:08:34.034Z,9.10
2019-05-16T18:11:06.960Z,9.00
2019-05-16T18:13:37.415Z,9.00
2019-05-16T18:16:08.322Z,9.00
2019-05-16T18:18:39.068Z,8.90
2019-05-16T18:21:09.843Z,8.80
2019-05-16T18:23:40.610Z,8.70
2019-05-16T18:26:11.365Z,8.60
2019-05-16T18:28:42.153Z,8.60
2019-05-16T18:31:12.950Z,8.50
2019-05-16T18:34:02.770Z,8.50
2019-05-16T18:36:33.526Z,8.50
2019-05-16T18:39:06.573Z,8.40
2019-05-16T18:41:37.570Z,8.30
2019-05-16T18:44:08.314Z,8.30
2019-05-16T18:46:39.092Z,8.20
2019-05-16T18:49:09.848Z,8.10
2019-05-16T18:51:40.625Z,8.00
2019-05-16T18:54:11.391Z,8.00
2019-05-16T18:56:42.520Z,8.00
2019-05-16T18:59:13.324Z,8.00
2019-05-16T19:01:46.690Z,7.80
2019-05-16T19:04:17.498Z,7.80
2019-05-16T19:06:48.583Z,7.80
2019-05-16T19:09:19.309Z,7.80
2019-05-16T19:11:50.115Z,7.80
2019-05-16T19:14:20.893Z,7.80
2019-05-16T19:16:51.678Z,7.80
2019-05-16T19:19:25.383Z,7.80
2019-05-16T19:21:56.678Z,7.80
2019-05-16T19:24:27.822Z,7.80
2019-05-16T19:26:58.754Z,7.70
2019-05-16T19:29:29.520Z,7.70
2019-05-16T19:32:00.216Z,7.70
2019-05-16T19:34:31.042Z,7.60
2019-05-16T19:37:01.771Z,7.60
2019-05-16T19:39:32.545Z,7.60
2019-05-16T19:42:03.421Z,7.70
2019-05-16T19:44:34.207Z,7.60
2019-05-16T19:47:07.084Z,7.70
2019-05-16T19:49:37.400Z,7.70
2019-05-16T19:52:08.245Z,7.80
2019-05-16T19:54:39.043Z,7.80
2019-05-16T19:57:09.789Z,7.80
2019-05-16T19:59:40.587Z,7.80
2019-05-16T20:02:11.321Z,7.80
2019-05-16T20:04:42.087Z,7.80
2019-05-16T20:07:12.733Z,7.80
2019-05-16T20:09:43.516Z,7.80
2019-05-16T20:12:14.306Z,7.90
2019-05-16T20:14:47.135Z,7.80
2019-05-16T20:17:19.197Z,7.80
2019-05-16T20:19:49.928Z,7.80
2019-05-16T20:22:20.704Z,7.80
2019-05-16T20:24:51.469Z,7.70
2019-05-16T20:27:22.224Z,7.70
2019-05-16T20:29:53.011Z,7.70
2019-05-16T20:32:23.796Z,7.70
2019-05-16T20:34:54.539Z,7.70
2019-05-16T20:37:26.534Z,7.70
2019-05-16T20:39:58.151Z,7.60
2019-05-16T20:42:28.882Z,7.40
2019-05-16T20:44:59.698Z,7.40
2019-05-16T20:47:30.455Z,7.40
2019-05-16T20:50:01.278Z,7.30
2019-05-16T20:52:32.058Z,7.30
2019-05-16T20:55:02.884Z,7.30
2019-05-16T20:57:33.639Z,7.30
2019-05-16T21:00:06.782Z,7.30
2019-05-16T21:02:38.043Z,7.30
2019-05-16T21:05:09.370Z,7.40
2019-05-16T21:07:40.086Z,7.50
2019-05-16T21:10:11.331Z,7.40
2019-05-16T21:12:42.058Z,7.40
2019-05-16T21:15:13.104Z,7.40
2019-05-16T21:17:43.821Z,7.30
2019-05-16T21:20:14.627Z,7.30
2019-05-16T21:22:47.115Z,7.20
2019-05-16T21:25:18.884Z,7.30
2019-05-16T21:27:49.726Z,7.30
2019-05-16T21:30:20.603Z,7.30
2019-05-16T21:32:51.379Z,7.30
2019-05-16T21:35:22.154Z,7.30
2019-05-16T21:37:52.900Z,7.30
2019-05-16T21:40:23.717Z,7.30
2019-05-16T21:42:58.536Z,7.30
2019-05-16T21:45:28.722Z,7.30
2019-05-16T21:47:59.237Z,7.40
2019-05-16T21:50:30.035Z,7.50
2019-05-16T21:53:00.751Z,7.40
2019-05-16T21:55:31.546Z,7.40
2019-05-16T21:58:02.287Z,7.30
2019-05-16T22:00:38.480Z,7.40
2019-05-16T22:03:09.185Z,7.30
2019-05-16T22:05:39.971Z,7.20
2019-05-16T22:08:11.872Z,7.20
2019-05-16T22:10:42.675Z,7.20
2019-05-16T22:13:13.530Z,7.20
2019-05-16T22:15:46.206Z,7.10
2019-05-16T22:18:16.820Z,7.10
2019-05-16T22:20:49.371Z,7.10
2019-05-16T22:23:19.966Z,7.10
2019-05-16T22:25:50.722Z,7.10
2019-05-16T22:28:21.478Z,7.10
2019-05-16T22:30:52.234Z,7.10
2019-05-16T22:33:23.047Z,7.20
2019-05-16T22:35:53.747Z,7.20
2019-05-16T22:38:26.274Z,7.20
2019-05-16T22:40:57.072Z,7.20
2019-05-16T22:43:27.897Z,7.20
2019-05-16T22:45:58.623Z,7.20
2019-05-16T22:48:29.413Z,7.20
2019-05-16T22:51:00.175Z,7.10
2019-05-16T22:53:31.122Z,7.10
2019-05-16T22:56:01.840Z,7.10
2019-05-16T22:58:32.633Z,7.00
2019-05-16T23:01:03.491Z,7.00
2019-05-16T23:03:34.238Z,7.00
2019-05-16T23:06:07.364Z,7.00
2019-05-16T23:08:37.410Z,7.00
2019-05-16T23:11:08.165Z,7.00
2019-05-16T23:13:38.921Z,6.90
2019-05-16T23:16:09.878Z,6.90
2019-05-16T23:18:40.625Z,6.90
2019-05-16T23:21:11.301Z,6.90
2019-05-16T23:23:42.137Z,6.90
2019-05-16T23:26:12.935Z,6.90
2019-05-16T23:28:43.670Z,6.90
2019-05-16T23:31:16.520Z,6.80
2019-05-16T23:33:47.133Z,6.90
2019-05-16T23:36:17.998Z,6.80
2019-05-16T23:38:48.722Z,6.80
2019-05-16T23:41:19.442Z,6.80
2019-05-16T23:43:50.188Z,6.80
2019-05-16T23:46:20.895Z,6.80
2019-05-16T23:48:51.591Z,6.80
2019-05-16T23:51:41.362Z,6.80
2019-05-16T23:54:12.288Z,6.80
2019-05-16T23:56:43.034Z,6.80
2019-05-16T23:59:13.700Z,6.80
